createdAt,value
2023-06-11T00:01:28.209Z,86.80
2023-06-11T00:03:55.710Z,86.50
2023-06-11T00:06:24.426Z,86.10
2023-06-11T00:08:55.522Z,85.60
2023-06-11T00:11:23.175Z,84.90
2023-06-11T00:13:50.921Z,84.60
2023-06-11T00:16:18.399Z,83.40
2023-06-11T00:18:46.418Z,84.10
2023-06-11T00:21:15.348Z,83.30
2023-06-11T00:23:42.372Z,83.10
2023-06-11T00:26:09.733Z,82.50
2023-06-11T00:28:36.854Z,82.00
2023-06-11T00:31:07.346Z,81.20
2023-06-11T00:33:34.527Z,80.50
2023-06-11T00:36:01.425Z,80.40
2023-06-11T00:38:29.707Z,80.40
2023-06-11T00:40:56.792Z,80.80
2023-06-11T00:43:25.113Z,79.80
2023-06-11T00:45:52.742Z,79.60
2023-06-11T00:48:21.018Z,79.20
2023-06-11T00:50:52.674Z,79.10
2023-06-11T00:53:20.980Z,78.90
2023-06-11T00:55:48.513Z,78.70
2023-06-11T00:58:18.773Z,78.20
2023-06-11T01:00:50.544Z,78.10
2023-06-11T01:03:22.861Z,78.10
2023-06-11T01:05:54.048Z,77.80
2023-06-11T01:08:22.127Z,77.90
2023-06-11T01:10:50.628Z,77.50
2023-06-11T01:13:17.469Z,77.40
2023-06-11T01:15:44.278Z,77.50
2023-06-11T01:18:20.896Z,77.10
2023-06-11T01:21:13.420Z,77.10
2023-06-11T01:24:08.844Z,76.90
2023-06-11T01:26:54.868Z,76.70
2023-06-11T01:29:23.770Z,76.60
2023-06-11T01:31:51.745Z,76.00
2023-06-11T01:34:18.648Z,75.80
2023-06-11T01:36:45.550Z,75.70
2023-06-11T01:39:13.673Z,75.40
2023-06-11T01:41:40.693Z,74.80
2023-06-11T01:44:07.513Z,74.50
2023-06-11T01:46:34.378Z,74.30
2023-06-11T01:49:01.475Z,74.10
2023-06-11T01:51:28.317Z,73.70
2023-06-11T01:53:56.240Z,73.90
2023-06-11T01:56:23.225Z,73.10
2023-06-11T01:58:50.073Z,73.20
2023-06-11T02:01:16.893Z,73.00
2023-06-11T02:03:43.834Z,72.80
2023-06-11T02:06:10.726Z,72.80
2023-06-11T02:08:37.593Z,72.80
2023-06-11T02:11:05.018Z,72.80
2023-06-11T02:13:32.251Z,72.80
2023-06-11T02:16:00.014Z,72.60
2023-06-11T02:18:26.924Z,72.50
2023-06-11T02:20:53.796Z,71.80
2023-06-11T02:23:20.803Z,71.70
2023-06-11T02:25:47.573Z,71.50
2023-06-11T02:28:14.482Z,71.50
2023-06-11T02:30:41.350Z,71.90
2023-06-11T02:33:08.226Z,71.60
2023-06-11T02:35:35.107Z,71.20
2023-06-11T02:38:01.992Z,71.00
2023-06-11T02:40:28.819Z,71.00
2023-06-11T02:42:55.679Z,70.90
2023-06-11T02:45:22.691Z,70.30
2023-06-11T02:47:49.558Z,70.80
2023-06-11T02:50:16.474Z,70.60
2023-06-11T02:52:43.328Z,70.30
2023-06-11T02:55:10.920Z,70.50
2023-06-11T02:57:38.022Z,70.50
2023-06-11T03:00:06.890Z,70.60
2023-06-11T03:02:33.861Z,70.40
2023-06-11T03:05:00.928Z,70.50
2023-06-11T03:07:27.742Z,70.50
2023-06-11T03:09:54.544Z,70.20
2023-06-11T03:12:22.112Z,70.60
2023-06-11T03:14:48.974Z,71.00
2023-06-11T03:17:15.864Z,71.20
2023-06-11T03:19:42.853Z,71.20
2023-06-11T03:22:10.338Z,71.00
2023-06-11T03:24:37.132Z,71.20
2023-06-11T03:27:04.346Z,71.00
2023-06-11T03:29:31.122Z,70.70
2023-06-11T03:31:58.354Z,71.10
2023-06-11T03:34:25.264Z,71.20
2023-06-11T03:36:52.013Z,71.10
2023-06-11T03:39:18.946Z,71.30
2023-06-11T03:41:45.847Z,71.10
2023-06-11T03:44:12.889Z,71.30
2023-06-11T03:46:39.717Z,72.20
2023-06-11T03:49:06.555Z,71.70
2023-06-11T03:51:33.417Z,72.10
2023-06-11T03:54:00.312Z,72.00
2023-06-11T03:56:27.773Z,71.90
2023-06-11T03:58:54.557Z,71.80
2023-06-11T04:01:21.915Z,72.10
2023-06-11T04:03:48.861Z,72.90
2023-06-11T04:06:17.187Z,72.50
2023-06-11T04:08:44.002Z,72.60
2023-06-11T04:11:10.994Z,72.80
2023-06-11T04:13:37.799Z,72.70
2023-06-11T04:16:07.055Z,72.70
2023-06-11T04:18:34.167Z,72.60
2023-06-11T04:21:01.134Z,73.00
2023-06-11T04:23:27.916Z,72.60
2023-06-11T04:25:56.431Z,72.70
2023-06-11T04:28:24.424Z,72.70
2023-06-11T04:30:51.243Z,72.80
2023-06-11T04:33:18.070Z,73.20
2023-06-11T04:35:44.927Z,73.00
2023-06-11T04:38:12.048Z,73.10
2023-06-11T04:40:39.074Z,73.00
2023-06-11T04:43:05.938Z,73.00
2023-06-11T04:45:35.233Z,72.90
2023-06-11T04:48:04.754Z,72.90
2023-06-11T04:50:32.902Z,72.70
2023-06-11T04:53:02.970Z,73.00
2023-06-11T04:55:33.420Z,72.90
2023-06-11T04:58:00.345Z,72.30
2023-06-11T05:00:27.558Z,72.00
2023-06-11T05:02:54.855Z,72.10
2023-06-11T05:05:21.801Z,72.50
2023-06-11T05:07:48.608Z,72.20
2023-06-11T05:10:16.693Z,72.10
2023-06-11T05:12:43.521Z,72.40
2023-06-11T05:15:11.081Z,72.20
2023-06-11T05:17:38.266Z,71.50
2023-06-11T05:20:06.530Z,72.10
2023-06-11T05:22:33.324Z,72.20
2023-06-11T05:25:00.114Z,71.50
2023-06-11T05:27:30.264Z,71.90
2023-06-11T05:29:58.211Z,70.60
2023-06-11T05:32:25.170Z,71.40
2023-06-11T05:34:52.192Z,71.80
2023-06-11T05:37:19.379Z,72.10
2023-06-11T05:39:46.749Z,71.60
2023-06-11T05:42:13.624Z,72.10
2023-06-11T05:44:40.414Z,71.60
2023-06-11T05:47:07.499Z,71.30
2023-06-11T05:49:34.429Z,71.50
2023-06-11T05:52:01.223Z,70.30
2023-06-11T05:54:28.099Z,70.60
2023-06-11T05:56:54.909Z,70.40
2023-06-11T05:59:21.764Z,70.70
2023-06-11T06:01:48.626Z,70.70
2023-06-11T06:04:17.194Z,69.80
2023-06-11T06:06:44.148Z,70.10
2023-06-11T06:09:11.264Z,70.70
2023-06-11T06:11:38.207Z,70.40
2023-06-11T06:14:05.078Z,70.60
2023-06-11T06:16:32.998Z,70.30
2023-06-11T06:19:00.142Z,70.60
2023-06-11T06:21:26.937Z,70.40
2023-06-11T06:23:53.938Z,70.50
2023-06-11T06:26:21.632Z,70.60
2023-06-11T06:28:48.450Z,70.30
2023-06-11T06:31:15.599Z,70.40
2023-06-11T06:33:42.471Z,70.40
2023-06-11T06:36:09.348Z,70.00
2023-06-11T06:38:37.512Z,68.70
2023-06-11T06:41:04.558Z,69.30
2023-06-11T06:43:31.459Z,68.80
2023-06-11T06:45:58.433Z,69.30
2023-06-11T06:48:26.335Z,68.90
2023-06-11T06:50:53.323Z,68.70
2023-06-11T06:53:20.115Z,69.00
2023-06-11T06:55:47.696Z,68.60
2023-06-11T06:58:15.759Z,68.50
2023-06-11T07:00:42.595Z,67.00
2023-06-11T07:03:10.655Z,65.90
2023-06-11T07:05:37.583Z,66.60
2023-06-11T07:08:04.545Z,67.00
2023-06-11T07:10:31.523Z,67.40
2023-06-11T07:13:00.638Z,66.10
2023-06-11T07:15:27.756Z,66.50
2023-06-11T07:17:54.560Z,66.10
2023-06-11T07:20:21.686Z,65.70
2023-06-11T07:22:48.558Z,65.60
2023-06-11T07:25:15.468Z,65.70
2023-06-11T07:27:44.103Z,66.30
2023-06-11T07:30:12.643Z,66.80
2023-06-11T07:32:39.609Z,66.80
2023-06-11T07:35:06.799Z,65.00
2023-06-11T07:37:33.659Z,63.20
2023-06-11T07:40:00.523Z,64.30
2023-06-11T07:42:27.353Z,63.90
2023-06-11T07:44:54.165Z,63.40
2023-06-11T07:47:21.079Z,63.20
2023-06-11T07:49:47.937Z,63.50
2023-06-11T07:52:14.773Z,64.00
2023-06-11T07:54:42.462Z,64.10
2023-06-11T07:57:11.200Z,63.90
2023-06-11T07:59:38.272Z,64.10
2023-06-11T08:02:06.155Z,63.30
2023-06-11T08:04:33.417Z,63.50
2023-06-11T08:07:00.363Z,62.80
2023-06-11T08:09:29.978Z,63.00
2023-06-11T08:11:57.843Z,63.60
2023-06-11T08:14:24.693Z,63.10
2023-06-11T08:16:51.605Z,62.40
2023-06-11T08:19:18.613Z,62.40
2023-06-11T08:21:47.988Z,62.30
2023-06-11T08:24:14.923Z,62.20
2023-06-11T08:26:41.800Z,62.70
2023-06-11T08:29:08.661Z,63.30
2023-06-11T08:31:35.609Z,62.70
2023-06-11T08:34:02.667Z,63.40
2023-06-11T08:36:29.514Z,61.90
2023-06-11T08:38:56.532Z,62.20
2023-06-11T08:41:24.746Z,61.90
2023-06-11T08:43:51.715Z,61.80
2023-06-11T08:46:23.146Z,61.90
2023-06-11T08:49:00.487Z,61.10
2023-06-11T08:51:38.276Z,60.90
2023-06-11T08:54:09.230Z,61.20
2023-06-11T08:56:36.885Z,61.40
2023-06-11T08:59:04.552Z,61.30
2023-06-11T09:01:32.807Z,61.50
2023-06-11T09:04:00.926Z,59.50
2023-06-11T09:06:29.335Z,60.80
2023-06-11T09:09:00.741Z,60.90
2023-06-11T09:11:33.658Z,60.50
2023-06-11T09:14:00.678Z,60.50
2023-06-11T09:16:27.605Z,60.80
2023-06-11T09:18:57.486Z,61.30
2023-06-11T09:21:26.130Z,60.90
2023-06-11T09:23:53.389Z,60.80
2023-06-11T09:26:20.306Z,61.00
2023-06-11T09:28:51.810Z,59.30
2023-06-11T09:31:20.109Z,59.10
2023-06-11T09:33:47.093Z,59.80
2023-06-11T09:36:17.359Z,59.80
2023-06-11T09:38:47.960Z,60.00
2023-06-11T09:41:16.533Z,60.60
2023-06-11T09:43:45.302Z,59.80
2023-06-11T09:46:15.649Z,59.00
2023-06-11T09:48:42.983Z,59.50
2023-06-11T09:51:10.967Z,59.40
2023-06-11T09:53:39.562Z,58.10
2023-06-11T09:56:11.562Z,58.50
2023-06-11T09:58:40.791Z,58.70
2023-06-11T10:01:08.471Z,58.00
2023-06-11T10:03:35.341Z,58.40
2023-06-11T10:06:08.102Z,58.40
2023-06-11T10:08:37.276Z,58.00
2023-06-11T10:11:05.336Z,57.60
2023-06-11T10:13:36.431Z,57.10
2023-06-11T10:16:05.301Z,57.50
2023-06-11T10:18:32.287Z,57.20
2023-06-11T10:21:04.461Z,57.50
2023-06-11T10:23:50.601Z,58.10
2023-06-11T10:26:18.002Z,57.40
2023-06-11T10:28:53.574Z,58.10
2023-06-11T10:31:30.909Z,58.00
2023-06-11T10:34:05.172Z,58.70
2023-06-11T10:36:41.838Z,58.30
2023-06-11T10:39:35.099Z,57.90
2023-06-11T10:42:03.554Z,58.40
2023-06-11T10:44:31.359Z,57.80
2023-06-11T10:47:01.900Z,57.40
2023-06-11T10:49:29.789Z,58.30
2023-06-11T10:51:57.302Z,59.10
2023-06-11T10:54:28.370Z,58.70
2023-06-11T10:57:00.056Z,58.00
2023-06-11T10:59:27.253Z,58.20
2023-06-11T11:01:54.737Z,58.00
2023-06-11T11:04:25.145Z,57.70
2023-06-11T11:07:09.817Z,58.10
2023-06-11T11:09:37.051Z,58.00
2023-06-11T11:12:05.013Z,58.10
2023-06-11T11:14:32.061Z,58.50
2023-06-11T11:17:02.491Z,58.00
2023-06-11T11:19:31.507Z,58.10
2023-06-11T11:21:58.431Z,58.30
2023-06-11T11:24:26.039Z,57.00
2023-06-11T11:26:53.078Z,56.70
2023-06-11T11:29:19.991Z,57.10
2023-06-11T11:31:47.829Z,57.90
2023-06-11T11:34:14.910Z,58.50
2023-06-11T11:36:46.808Z,58.90
2023-06-11T11:39:15.699Z,58.30
2023-06-11T11:42:02.993Z,58.40
2023-06-11T11:44:42.839Z,56.70
2023-06-11T11:47:11.346Z,57.50
2023-06-11T11:49:38.662Z,57.90
2023-06-11T11:52:08.907Z,58.30
2023-06-11T11:54:36.234Z,59.20
2023-06-11T11:57:03.813Z,58.20
2023-06-11T11:59:31.105Z,58.40
2023-06-11T12:01:59.314Z,58.70
2023-06-11T12:04:43.773Z,57.70
2023-06-11T12:07:16.297Z,57.30
2023-06-11T12:09:43.368Z,56.90
2023-06-11T12:12:11.429Z,57.90
2023-06-11T12:14:39.027Z,58.20
2023-06-11T12:17:12.015Z,57.50
2023-06-11T12:19:39.075Z,57.30
2023-06-11T12:22:06.675Z,57.70
2023-06-11T12:24:37.768Z,57.90
2023-06-11T12:27:09.416Z,55.40
2023-06-11T12:29:38.175Z,55.80
2023-06-11T12:32:05.489Z,56.90
2023-06-11T12:34:33.518Z,57.30
2023-06-11T12:37:01.263Z,57.40
2023-06-11T12:39:28.097Z,57.70
2023-06-11T12:41:54.957Z,58.50
2023-06-11T12:44:21.802Z,58.80
2023-06-11T12:46:48.670Z,57.90
2023-06-11T12:49:15.608Z,55.10
2023-06-11T12:51:47.041Z,55.40
2023-06-11T12:54:15.984Z,54.60
2023-06-11T12:59:09.820Z,55.80
2023-06-11T13:01:36.924Z,56.10
2023-06-11T13:04:03.948Z,56.80
2023-06-11T13:06:31.253Z,56.80
2023-06-11T13:08:58.528Z,57.50
2023-06-11T13:11:25.343Z,57.20
2023-06-11T13:13:53.313Z,57.60
2023-06-11T13:16:20.335Z,56.80
2023-06-11T13:18:47.278Z,56.60
2023-06-11T13:21:14.867Z,57.40
2023-06-11T13:23:44.022Z,56.90
2023-06-11T13:26:11.583Z,56.90
2023-06-11T13:28:40.467Z,57.40
2023-06-11T13:31:07.825Z,57.70
2023-06-11T13:33:34.753Z,57.90
2023-06-11T13:36:02.017Z,56.70
2023-06-11T13:38:28.975Z,55.40
2023-06-11T13:40:56.162Z,55.70
2023-06-11T13:43:23.212Z,55.70
2023-06-11T13:45:51.028Z,55.90
2023-06-11T13:48:19.928Z,56.50
2023-06-11T13:50:48.400Z,56.80
2023-06-11T13:53:16.268Z,57.30
2023-06-11T13:55:43.337Z,57.90
2023-06-11T13:58:10.125Z,57.90
2023-06-11T14:00:36.968Z,58.20
2023-06-11T14:03:05.088Z,57.70
2023-06-11T14:05:32.357Z,58.50
2023-06-11T14:07:59.804Z,58.50
2023-06-11T14:10:27.421Z,58.40
2023-06-11T14:12:54.299Z,58.60
2023-06-11T14:15:21.280Z,58.90
2023-06-11T14:17:48.414Z,59.10
2023-06-11T14:20:17.921Z,59.40
2023-06-11T14:22:45.616Z,59.30
2023-06-11T14:25:12.627Z,59.30
2023-06-11T14:27:39.473Z,59.60
2023-06-11T14:30:07.435Z,58.50
2023-06-11T14:32:34.373Z,57.80
2023-06-11T14:35:01.385Z,57.70
2023-06-11T14:37:28.700Z,57.60
2023-06-11T14:39:55.853Z,57.10
2023-06-11T14:42:23.105Z,57.80
2023-06-11T14:44:50.612Z,58.50
2023-06-11T14:47:17.845Z,59.10
2023-06-11T14:49:44.683Z,59.40
2023-06-11T14:52:13.943Z,60.00
2023-06-11T14:54:40.714Z,60.30
2023-06-11T14:57:19.403Z,58.10
2023-06-11T14:59:46.611Z,57.20
2023-06-11T15:02:17.100Z,58.00
2023-06-11T15:04:44.973Z,58.50
2023-06-11T15:07:29.400Z,58.70
2023-06-11T15:10:05.836Z,59.40
2023-06-11T15:12:32.902Z,59.80
2023-06-11T15:15:02.420Z,60.20
2023-06-11T15:17:36.826Z,60.40
2023-06-11T15:20:08.551Z,60.90
2023-06-11T15:22:38.566Z,61.00
2023-06-11T15:25:05.781Z,61.50
2023-06-11T15:27:32.633Z,61.80
2023-06-11T15:29:59.655Z,61.00
2023-06-11T15:32:26.561Z,60.80
2023-06-11T15:34:53.464Z,58.80
2023-06-11T15:37:20.390Z,57.90
2023-06-11T15:39:51.669Z,58.30
2023-06-11T15:42:19.461Z,58.50
2023-06-11T15:44:46.647Z,59.10
2023-06-11T15:47:13.640Z,59.70
2023-06-11T15:49:40.634Z,60.60
2023-06-11T15:52:08.773Z,60.80
2023-06-11T15:54:35.697Z,61.60
2023-06-11T15:57:02.850Z,60.70
2023-06-11T15:59:29.799Z,60.60
2023-06-11T16:01:56.783Z,59.80
2023-06-11T16:04:24.402Z,59.90
2023-06-11T16:06:51.469Z,60.30
2023-06-11T16:09:18.371Z,60.70
2023-06-11T16:11:45.481Z,61.50
2023-06-11T16:14:15.970Z,61.60
2023-06-11T16:16:43.637Z,62.20
2023-06-11T16:19:10.581Z,62.50
2023-06-11T16:21:38.161Z,62.70
2023-06-11T16:24:06.126Z,62.70
2023-06-11T16:26:33.322Z,62.90
2023-06-11T16:29:00.518Z,62.80
2023-06-11T16:31:27.454Z,62.60
2023-06-11T16:33:58.931Z,61.60
2023-06-11T16:36:29.086Z,62.30
2023-06-11T16:39:01.293Z,60.80
2023-06-11T16:41:33.330Z,60.00
2023-06-11T16:44:00.527Z,59.70
2023-06-11T16:46:27.551Z,59.80
2023-06-11T16:48:54.692Z,59.60
2023-06-11T16:51:21.671Z,60.00
2023-06-11T16:53:48.683Z,60.50
2023-06-11T16:56:15.668Z,60.70
2023-06-11T16:58:42.498Z,60.90
2023-06-11T17:01:09.466Z,61.40
2023-06-11T17:03:36.580Z,61.50
2023-06-11T17:06:03.758Z,61.70
2023-06-11T17:08:31.149Z,61.60
2023-06-11T17:10:58.210Z,61.90
2023-06-11T17:13:25.457Z,62.00
2023-06-11T17:15:52.297Z,62.10
2023-06-11T17:18:19.136Z,62.30
2023-06-11T17:20:47.437Z,62.60
2023-06-11T17:23:16.868Z,62.90
2023-06-11T17:25:43.997Z,62.70
2023-06-11T17:28:14.285Z,62.80
2023-06-11T17:30:41.096Z,62.90
2023-06-11T17:33:07.956Z,62.80
2023-06-11T17:35:34.848Z,62.60
2023-06-11T17:38:01.802Z,62.10
2023-06-11T17:40:29.025Z,62.10
2023-06-11T17:42:59.089Z,62.40
2023-06-11T17:45:29.736Z,62.60
2023-06-11T17:47:57.300Z,62.70
2023-06-11T17:50:25.044Z,62.90
2023-06-11T17:52:52.280Z,63.00
2023-06-11T17:55:19.124Z,63.00
2023-06-11T17:57:48.107Z,63.10
2023-06-11T18:00:16.941Z,63.30
2023-06-11T18:02:45.451Z,63.30
2023-06-11T18:05:13.162Z,63.20
2023-06-11T18:07:46.561Z,63.60
2023-06-11T18:10:15.787Z,64.10
2023-06-11T18:12:43.632Z,64.40
2023-06-11T18:15:30.499Z,64.70
2023-06-11T18:17:59.327Z,65.20
2023-06-11T18:20:27.947Z,65.60
2023-06-11T18:22:55.149Z,65.50
2023-06-11T18:25:22.450Z,65.60
2023-06-11T18:27:49.560Z,65.90
2023-06-11T18:30:16.484Z,66.10
2023-06-11T18:32:43.446Z,66.10
2023-06-11T18:35:11.249Z,66.30
2023-06-11T18:37:38.739Z,66.60
2023-06-11T18:40:06.734Z,66.70
2023-06-11T18:42:33.637Z,66.80
2023-06-11T18:45:00.800Z,66.80
2023-06-11T18:47:27.672Z,67.00
2023-06-11T18:49:54.505Z,67.10
2023-06-11T18:52:21.449Z,67.30
2023-06-11T18:54:48.391Z,67.40
2023-06-11T18:57:19.553Z,67.60
2023-06-11T18:59:50.428Z,67.70
2023-06-11T19:02:17.529Z,67.80
2023-06-11T19:04:44.605Z,68.70
2023-06-11T19:07:11.681Z,68.20
2023-06-11T19:09:39.149Z,68.20
2023-06-11T19:12:07.468Z,68.40
2023-06-11T19:14:34.592Z,68.50
2023-06-11T19:17:01.518Z,68.70
2023-06-11T19:19:28.531Z,68.90
2023-06-11T19:21:55.947Z,68.80
2023-06-11T19:24:22.853Z,69.00
2023-06-11T19:26:50.075Z,69.30
2023-06-11T19:29:16.976Z,69.40
2023-06-11T19:31:43.860Z,69.50
2023-06-11T19:34:10.749Z,69.70
2023-06-11T19:36:38.485Z,69.60
2023-06-11T19:39:06.079Z,69.80
2023-06-11T19:41:32.911Z,70.70
2023-06-11T19:43:59.971Z,70.00
2023-06-11T19:46:35.705Z,70.00
2023-06-11T19:49:03.494Z,70.20
2023-06-11T19:51:30.493Z,70.40
2023-06-11T19:54:03.071Z,70.60
2023-06-11T19:56:35.598Z,70.70
2023-06-11T19:59:05.194Z,71.00
2023-06-11T20:01:32.638Z,71.00
2023-06-11T20:04:08.467Z,71.10
2023-06-11T20:06:35.898Z,71.20
2023-06-11T20:09:05.108Z,71.40
2023-06-11T20:11:32.305Z,71.50
2023-06-11T20:13:59.353Z,71.60
2023-06-11T20:16:26.321Z,71.90
2023-06-11T20:18:53.756Z,71.80
2023-06-11T20:21:20.634Z,71.90
2023-06-11T20:23:47.456Z,72.10
2023-06-11T20:26:14.298Z,72.10
2023-06-11T20:28:41.130Z,72.20
2023-06-11T20:31:09.034Z,72.30
2023-06-11T20:33:36.341Z,72.40
2023-06-11T20:36:03.927Z,72.50
2023-06-11T20:38:30.960Z,72.70
2023-06-11T20:40:58.591Z,72.80
2023-06-11T20:43:25.478Z,72.90
2023-06-11T20:48:22.469Z,73.20
2023-06-11T20:50:49.782Z,73.20
2023-06-11T20:53:31.779Z,73.20
2023-06-11T20:56:00.846Z,73.30
2023-06-11T20:58:27.762Z,73.60
2023-06-11T21:00:54.738Z,73.50
2023-06-11T21:03:22.005Z,73.70
2023-06-11T21:05:51.299Z,73.90
2023-06-11T21:08:21.506Z,74.10
2023-06-11T21:10:48.600Z,74.30
2023-06-11T21:13:15.714Z,74.20
2023-06-11T21:15:42.919Z,74.40
2023-06-11T21:18:09.903Z,74.50
2023-06-11T21:20:39.174Z,74.60
2023-06-11T21:23:06.136Z,74.70
2023-06-11T21:25:33.106Z,75.00
2023-06-11T21:28:03.467Z,75.10
2023-06-11T21:30:33.639Z,75.10
2023-06-11T21:33:01.951Z,75.20
2023-06-11T21:35:28.892Z,75.30
2023-06-11T21:37:55.766Z,75.40
2023-06-11T21:40:22.743Z,75.50
2023-06-11T21:42:49.606Z,75.70
2023-06-11T21:45:16.661Z,75.80
2023-06-11T21:47:43.547Z,75.80
2023-06-11T22:10:11.582Z,77.00
2023-06-11T22:12:42.310Z,77.10
2023-06-11T22:15:11.949Z,77.20
2023-06-11T22:17:40.565Z,77.20
2023-06-11T22:20:09.507Z,77.30
2023-06-11T22:22:38.334Z,77.30
2023-06-11T22:25:06.172Z,77.40
2023-06-11T22:27:33.570Z,77.50
2023-06-11T22:30:00.475Z,77.60
2023-06-11T22:32:27.742Z,77.70
2023-06-11T22:34:54.677Z,77.70
2023-06-11T22:37:21.583Z,77.90
2023-06-11T22:39:48.672Z,77.70
2023-06-11T22:42:15.536Z,77.90
2023-06-11T22:44:42.356Z,78.00
2023-06-11T22:47:09.535Z,78.10
2023-06-11T22:49:36.439Z,78.10
2023-06-11T22:52:03.445Z,78.00
2023-06-11T22:54:30.353Z,78.10
2023-06-11T22:56:57.331Z,78.10
2023-06-11T22:59:24.154Z,78.10
2023-06-11T23:01:51.410Z,78.30
2023-06-11T23:04:20.876Z,78.40
2023-06-11T23:06:48.646Z,78.40
2023-06-11T23:09:16.309Z,78.50
2023-06-11T23:11:43.620Z,78.40
2023-06-11T23:14:11.554Z,78.60
2023-06-11T23:16:38.618Z,78.80
2023-06-11T23:19:06.057Z,78.90
2023-06-11T23:21:32.873Z,78.80
2023-06-11T23:24:02.058Z,78.80
2023-06-11T23:26:29.272Z,78.70
2023-06-11T23:28:57.189Z,78.90
2023-06-11T23:31:24.243Z,78.80
2023-06-11T23:33:51.134Z,78.90
2023-06-11T23:36:19.177Z,79.60
2023-06-11T23:38:46.898Z,78.60
2023-06-11T23:41:13.741Z,78.60
2023-06-11T23:43:40.934Z,78.50
2023-06-11T23:46:12.396Z,78.40
2023-06-11T23:48:39.949Z,78.40
2023-06-11T23:51:10.428Z,78.50
2023-06-11T23:53:37.378Z,78.40
2023-06-11T23:56:04.552Z,78.50
2023-06-11T23:58:31.432Z,78.70
